Latest Weather Observations for Proserpine

IDQ60801

Issued at 5:02 am EST Wednesday 28 June 2017 (issued every 30 minutes, with the page automatically refreshed every 10 minutes)

About weather observations | Map of weather stations | Latest weather observations for QLD | Other Formats
Station Details ID: 033247 Name: PROSERPINE AIRPORT Lat: -20.49 Lon: 148.56 Height: 19.7 m
Data from the previous 72 hours. | See also: Recent months at Proserpine
Date/Time
EST
Temp
°C
App
Temp
°C
Dew
Point
°C
Rel
Hum
%
Delta-T
°C
Wind Press
QNH
hPa
Press
MSL
hPa
Rain since
9am
mm
Dir  Spd
km/h
Gust
km/h
Spd
kts
Gust
kts
28/05:00am 18.6 18.2 17.1 91 0.9 SSE 15 20 8 11 1019.3 1019.2 0.0
28/04:30am 18.6 17.7 16.9 90 1.0 SSE 17 22 9 12 1019.2 1019.1 0.0
28/04:00am 18.6 18.6 17.3 92 0.8 SSE 13 19 7 10 1019.2 1019.1 0.0
28/03:30am 18.3 18.6 17.0 92 0.8 SSE 11 13 6 7 1019.3 1019.2 0.0
28/03:00am 18.9 19.3 17.2 90 1.0 SSE 11 15 6 8 1019.6 1019.5 0.0
28/02:30am 19.2 19.3 17.5 90 1.0 S 13 17 7 9 1019.9 1019.8 0.0
28/02:00am 19.0 19.1 17.5 91 0.9 SSE 13 19 7 10 1020.0 1019.9 0.0
28/01:30am 19.0 19.5 17.5 91 0.9 S 11 15 6 8 1020.5 1020.4 0.0
28/01:00am 19.1 18.9 17.6 91 0.9 SSE 15 19 8 10 1020.6 1020.5 0.0
28/12:30am 18.4 19.2 17.2 93 0.7 SSE 9 13 5 7 1021.0 1020.9 0.0
28/12:00am 18.6 18.6 17.1 91 0.9 SSE 13 19 7 10 1021.0 1020.9 0.0
 
Date/Time
EST
Temp
°C
App
Temp
°C
Dew
Point
°C
Rel
Hum
%
Delta-T
°C
Wind Press
QNH
hPa
Press
MSL
hPa
Rain since
9am
mm
Dir  Spd
km/h
Gust
km/h
Spd
kts
Gust
kts
27/11:30pm 18.6 17.5 17.3 92 0.8 SSE 19 22 10 12 1021.0 1020.9 0.0
27/11:00pm 18.4 17.6 17.1 92 0.8 SSE 17 20 9 11 1021.2 1021.1 0.0
27/10:30pm 18.7 18.7 17.2 91 0.9 SSE 13 19 7 10 1021.1 1021.0 0.0
27/10:00pm 18.9 19.4 17.4 91 0.9 S 11 13 6 7 1021.3 1021.2 0.0
27/09:30pm 19.4 19.7 17.9 91 0.9 SSE 13 17 7 9 1021.4 1021.3 0.0
27/09:00pm 19.1 19.6 17.4 90 1.0 SSE 11 15 6 8 1021.4 1021.3 0.0
27/08:30pm 19.1 19.7 17.6 91 0.9 SE 11 15 6 8 1021.3 1021.2 0.0
27/08:00pm 19.6 19.8 17.7 89 1.2 SE 13 17 7 9 1021.1 1021.0 0.0
27/07:30pm 20.1 20.0 17.9 87 1.4 SE 15 20 8 11 1020.8 1020.7 0.0
27/07:00pm 20.7 20.4 18.3 86 1.5 SE 17 26 9 14 1020.7 1020.6 0.0
27/06:30pm 20.3 19.8 17.9 86 1.5 SE 17 24 9 13 1020.6 1020.5 0.0
27/06:00pm 20.8 20.0 18.4 86 1.5 SE 20 28 11 15 1020.5 1020.4 0.0
27/05:30pm 21.1 19.5 18.3 84 1.7 SE 24 35 13 19 1020.2 1020.1 0.0
27/05:00pm 21.5 20.3 18.5 83 1.9 SE 22 32 12 17 1020.0 1019.9 0.0
27/04:30pm 22.0 20.4 18.4 80 2.3 ESE 24 33 13 18 1019.9 1019.8 0.0
27/04:00pm 22.6 21.1 18.6 78 2.5 ESE 24 33 13 18 1019.9 1019.8 0.0
27/03:30pm 22.6 19.9 18.4 77 2.6 SE 30 39 16 21 1019.5 1019.4 0.0
27/03:00pm 23.3 20.8 18.8 76 2.8 ESE 30 41 16 22 1019.5 1019.4 0.0
27/02:30pm 23.3 21.1 18.6 75 3.0 ESE 28 37 15 20 1019.5 1019.4 0.0
27/02:00pm 24.1 21.8 18.5 71 3.5 ESE 28 37 15 20 1019.3 1019.2 0.0
27/01:30pm 24.8 22.6 18.7 69 3.9 ESE 28 39 15 21 1019.5 1019.4 0.0
27/01:00pm 23.8 20.3 17.5 68 3.9 ESE 32 41 17 22 1020.0 1019.9 0.0
27/12:30pm 24.5 21.3 18.2 68 4.0 SE 32 41 17 22 1020.3 1020.2 0.0
27/12:00pm 23.6 20.6 17.8 70 3.6 ESE 30 41 16 22 1020.7 1020.6 0.0
27/11:30am 23.7 21.3 17.4 68 3.9 ESE 26 37 14 20 1021.0 1020.9 0.0
27/11:00am 23.3 20.7 17.7 71 3.5 ESE 28 35 15 19 1021.0 1020.9 0.0
27/10:30am 22.3 20.0 17.7 75 2.9 ESE 26 35 14 19 1021.2 1021.1 0.0
27/10:00am 22.3 20.6 18.1 77 2.6 SE 24 32 13 17 1021.4 1021.3 0.0
27/09:30am 21.4 20.7 18.2 82 2.0 SE 19 30 10 16 1021.4 1021.3 0.0
27/09:00am 19.9 20.5 17.7 87 1.3 SSE 11 15 6 8 1021.2 1021.1 0.0
27/08:48am 19.7 19.8 17.5 87 1.3 SSE 13 19 7 10 1021.3 1021.2 0.0
27/08:30am 19.2 20.3 17.9 92 0.8 SSE 9 13 5 7 1021.3 1021.2 0.0
27/08:29am 19.0 19.9 17.5 91 0.9 SSE 9 13 5 7 1021.3 1021.2 0.0
27/08:00am 18.1 18.8 17.0 93 0.7 SSW 9 11 5 6 1020.8 1020.7 0.0
27/07:30am 17.8 18.4 16.8 94 0.6 S 9 13 5 7 1020.5 1020.4 0.0
27/07:00am 17.1 18.0 16.6 97 0.3 SSW 7 11 4 6 1020.2 1020.1 0.0
27/06:30am 16.6 17.5 16.1 97 0.3 SW 6 9 3 5 1020.0 1019.9 0.0
27/06:00am 15.7 15.3 15.1 96 0.3 SSW 11 13 6 7 1019.8 1019.7 0.0
27/05:30am 16.2 16.7 15.6 96 0.4 SSW 7 9 4 5 1019.7 1019.6 0.0
27/05:00am 16.7 17.1 16.2 97 0.3 SSW 9 13 5 7 1019.6 1019.5 0.0
27/04:30am 16.4 17.0 15.9 97 0.3 S 7 9 4 5 1019.7 1019.6 0.0
27/04:00am 15.8 15.8 15.3 97 0.3 SW 9 11 5 6 1019.5 1019.4 0.0
27/03:30am 15.4 15.1 14.4 94 0.6 SSW 9 11 5 6 1019.5 1019.4 0.0
27/03:00am 16.6 16.2 16.1 97 0.3 S 13 17 7 9 1019.7 1019.6 0.0
27/02:30am 15.7 15.3 15.2 97 0.3 SSW 11 13 6 7 1020.0 1019.9 0.0
27/02:00am 15.8 15.9 15.5 98 0.2 SSW 9 13 5 7 1020.2 1020.1 0.0
27/01:30am 15.2 15.7 14.9 98 0.2 SSW 6 7 3 4 1020.3 1020.2 0.0
27/01:24am 15.1 15.5 14.8 98 0.2 SSW 6 6 3 3 1020.3 1020.2 0.0
27/01:06am 14.8 15.0 14.3 97 0.3 SSW 6 9 3 5 1020.3 1020.2 0.0
27/01:00am 14.7 14.7 14.2 97 0.3 SSW 7 9 4 5 1020.3 1020.2 0.0
27/12:45am 14.7 14.9 14.2 97 0.3 SSW 6 7 3 4 1020.4 1020.3 0.0
27/12:30am 14.3 14.7 13.7 96 0.3 SSW 4 6 2 3 1020.5 1020.4 0.0
27/12:07am 14.4 15.5 13.6 95 0.4 CALM 0 6 0 3 1020.6 1020.5 0.0
27/12:00am 14.2 15.3 13.4 95 0.4 CALM 0 0 0 0 1020.7 1020.6 0.0
 
Date/Time
EST
Temp
°C
App
Temp
°C
Dew
Point
°C
Rel
Hum
%
Delta-T
°C
Wind Press
QNH
hPa
Press
MSL
hPa
Rain since
9am
mm
Dir  Spd
km/h
Gust
km/h
Spd
kts
Gust
kts
26/11:30pm 15.3 15.5 14.7 96 0.3 S 7 9 4 5 1020.8 1020.7 0.0
26/11:00pm 15.1 14.8 14.5 96 0.3 S 9 11 5 6 1020.9 1020.8 0.0
26/10:30pm 14.7 14.8 13.9 95 0.4 SW 6 6 3 3 1021.1 1021.0 0.0
26/10:10pm 15.1 15.8 14.5 96 0.3 SW 4 6 2 3 1021.2 1021.1 0.0
26/10:00pm 15.2 16.3 14.7 97 0.3 SW 2 6 1 3 1021.2 1021.1 0.0
26/09:44pm 15.1 14.9 14.6 97 0.3 SSW 9 11 5 6 1021.0 1020.9 0.0
26/09:30pm 14.5 14.4 13.4 93 0.6 SW 6 7 3 4 1020.9 1020.8 0.0
26/09:00pm 16.7 18.3 15.9 95 0.5 S 2 7 1 4 1020.7 1020.6 0.0
26/08:42pm 17.5 19.9 17.0 97 0.3 CALM 0 0 0 0 1020.6 1020.5 0.0
26/08:37pm 17.6 20.0 17.1 97 0.3 CALM 0 0 0 0 1020.6 1020.5 0.0
26/08:30pm 17.6 20.0 17.1 97 0.3 CALM 0 0 0 0 1020.5 1020.4 0.0
26/08:18pm 17.2 19.4 16.6 96 0.4 CALM 0 0 0 0 1020.4 1020.3 0.0
26/08:06pm 17.2 19.4 16.6 96 0.4 CALM 0 0 0 0 1020.3 1020.2 0.0
26/08:00pm 17.2 19.4 16.6 96 0.4 CALM 0 0 0 0 1020.2 1020.1 0.0
26/07:46pm 17.2 18.9 16.2 94 0.6 S 2 6 1 3 1020.2 1020.1 0.0
26/07:30pm 17.8 19.7 16.7 93 0.7 SSE 2 6 1 3 1020.0 1019.9 0.0
26/07:00pm 18.0 18.9 16.5 91 0.9 SSE 7 9 4 5 1019.7 1019.6 0.0
26/06:30pm 19.0 20.7 17.1 89 1.2 ESE 4 6 2 3 1019.6 1019.5 0.0
26/06:00pm 19.4 20.6 16.8 85 1.6 E 6 7 3 4 1019.4 1019.3 0.0
26/05:30pm 20.6 20.8 16.8 79 2.3 ESE 11 15 6 8 1019.2 1019.1 0.0
26/05:00pm 22.1 21.3 16.1 69 3.6 E 15 20 8 11 1018.9 1018.8 0.0
26/04:30pm 23.1 21.6 15.4 62 4.6 E 17 22 9 12 1018.8 1018.7 0.0
26/04:00pm 23.6 21.4 14.3 56 5.5 ESE 19 24 10 13 1018.6 1018.5 0.0
26/03:30pm 24.3 22.2 14.7 55 5.7 E 19 26 10 14 1018.5 1018.4 0.0
26/03:00pm 24.1 21.7 14.5 55 5.7 ESE 20 28 11 15 1018.6 1018.5 0.0
26/02:30pm 24.4 21.9 14.2 53 6.0 ESE 20 28 11 15 1018.7 1018.6 0.0
26/02:00pm 24.0 21.8 14.4 55 5.7 ESE 19 26 10 14 1018.8 1018.7 0.0
26/01:30pm 24.3 22.1 15.0 56 5.6 SE 20 32 11 17 1018.8 1018.7 0.0
26/01:00pm 24.8 23.2 14.9 54 5.9 ESE 17 24 9 13 1019.2 1019.1 0.0
26/12:30pm 23.1 21.2 14.1 57 5.3 ESE 17 24 9 13 1019.7 1019.6 0.0
26/12:00pm 23.3 21.2 15.1 60 4.9 ESE 20 28 11 15 1020.1 1020.0 0.0
26/11:30am 23.9 22.3 16.4 63 4.6 ESE 20 30 11 16 1020.3 1020.2 0.0
26/11:00am 22.2 20.9 15.8 67 3.8 ESE 17 24 9 13 1020.5 1020.4 0.0
26/10:30am 23.1 21.6 16.2 65 4.2 ESE 19 28 10 15 1020.5 1020.4 0.0
26/10:00am 21.7 20.8 15.8 69 3.5 SE 15 24 8 13 1020.7 1020.6 0.0
26/09:30am 20.9 20.9 16.3 75 2.8 E 11 15 6 8 1020.6 1020.5 0.0
26/09:00am 19.0 19.9 16.0 83 1.8 S 6 7 3 4 1020.4 1020.3 0.0
26/08:30am 16.9 17.4 14.9 88 1.2 SSE 6 7 3 4 1020.4 1020.3 0.0
26/08:00am 15.2 15.0 14.6 96 0.3 SSW 9 11 5 6 1020.1 1020.0 0.0
26/07:30am 13.0 12.7 12.7 98 0.2 SW 6 7 3 4 1019.6 1019.5 0.0
26/07:00am 10.9 9.7 10.4 97 0.3 SW 7 9 4 5 1019.2 1019.1 0.0
26/06:30am 11.2 9.4 10.7 97 0.3 SW 11 13 6 7 1018.6 1018.5 0.0
26/06:00am 11.1 11.3 10.5 96 0.3 CALM 0 0 0 0 1018.4 1018.3 0.0
26/05:30am 11.4 11.7 10.9 97 0.3 CALM 0 0 0 0 1018.4 1018.3 0.0
26/05:00am 11.0 11.1 10.2 95 0.4 CALM 0 0 0 0 1018.3 1018.2 0.0
26/04:30am 11.5 11.8 10.9 96 0.3 CALM 0 0 0 0 1018.1 1018.0 0.0
26/04:00am 11.5 10.5 10.4 93 0.6 SW 6 7 3 4 1018.1 1018.0 0.0
26/03:30am 12.4 11.6 11.6 95 0.4 SW 7 9 4 5 1018.0 1017.9 0.0
26/03:00am 11.7 10.7 10.3 91 0.7 SW 6 7 3 4 1018.1 1018.0 0.0
26/02:30am 13.2 12.6 12.3 94 0.5 SW 7 9 4 5 1018.2 1018.1 0.0
26/02:00am 13.9 13.6 12.8 93 0.6 SSW 6 7 3 4 1018.3 1018.2 0.0
26/01:30am 13.8 13.4 12.9 94 0.5 SW 7 7 4 4 1018.5 1018.4 0.0
26/01:00am 13.8 14.0 12.9 94 0.5 SW 4 9 2 5 1018.7 1018.6 0.0
26/12:30am 13.9 14.6 13.3 96 0.3 SW 2 6 1 3 1018.9 1018.8 0.0
26/12:00am 13.8 13.6 13.0 95 0.4 SSW 6 9 3 5 1019.1 1019.0 0.0
 
Date/Time
EST
Temp
°C
App
Temp
°C
Dew
Point
°C
Rel
Hum
%
Delta-T
°C
Wind Press
QNH
hPa
Press
MSL
hPa
Rain since
9am
mm
Dir  Spd
km/h
Gust
km/h
Spd
kts
Gust
kts
25/11:30pm 14.4 13.5 13.6 95 0.4 SSW 11 13 6 7 1019.2 1019.1 0.0
25/11:00pm 14.4 14.1 13.3 93 0.6 SSW 7 9 4 5 1019.2 1019.1 0.0
25/10:30pm 14.9 14.1 13.9 94 0.6 SSW 11 13 6 7 1019.4 1019.3 0.0
25/10:00pm 15.2 14.5 14.4 95 0.5 SW 11 13 6 7 1019.6 1019.5 0.0
25/09:30pm 15.7 14.9 15.1 96 0.3 SSW 13 13 7 7 1019.5 1019.4 0.0
25/09:00pm 16.0 15.7 15.4 96 0.3 SSW 11 13 6 7 1019.3 1019.2 0.0
25/08:30pm 16.2 16.0 15.6 96 0.4 SW 11 13 6 7 1019.0 1018.9 0.0
25/08:00pm 16.3 16.0 15.5 95 0.5 SSW 11 11 6 6 1018.7 1018.6 0.0
25/07:30pm 16.5 16.6 15.4 93 0.6 SSW 9 11 5 6 1018.3 1018.2 0.0
25/07:00pm 17.3 18.0 16.2 93 0.7 S 7 9 4 5 1018.0 1017.9 0.0
25/06:30pm 17.9 18.4 16.6 92 0.8 S 9 9 5 5 1017.6 1017.6 0.0
25/06:00pm 18.7 19.8 17.2 91 0.9 SSE 7 9 4 5 1017.1 1017.1 0.0
25/05:30pm 19.5 20.1 16.9 85 1.6 SE 9 13 5 7 1017.0 1017.0 0.0
25/05:00pm 21.2 20.7 17.0 77 2.6 SE 15 20 8 11 1016.9 1016.9 0.0
25/04:30pm 22.4 21.2 16.2 68 3.8 ESE 17 20 9 11 1016.9 1016.9 0.0
25/04:00pm 22.9 21.9 15.5 63 4.4 ESE 15 20 8 11 1016.8 1016.8 0.0
25/03:30pm 23.9 22.3 15.1 58 5.3 E 17 22 9 12 1016.7 1016.7 0.0
25/03:00pm 23.3 20.6 13.5 54 5.7 ESE 20 26 11 14 1016.8 1016.8 0.0
25/02:30pm 23.7 20.7 12.7 50 6.3 E 20 28 11 15 1016.9 1016.9 0.0
25/02:00pm 23.7 20.9 12.7 50 6.3 ESE 19 26 10 14 1017.0 1017.0 0.0
25/01:30pm 23.3 20.6 13.5 54 5.7 ESE 20 24 11 13 1017.2 1017.2 0.0
25/01:00pm 23.7 20.8 13.0 51 6.2 ESE 20 26 11 14 1017.4 1017.4 0.0
25/12:30pm 23.6 22.0 14.0 55 5.6 ESE 15 22 8 12 1017.6 1017.6 0.0
25/12:00pm 23.6 21.7 14.3 56 5.5 ESE 17 22 9 12 1018.0 1017.9 0.0
25/11:30am 23.3 20.9 13.8 55 5.5 ESE 19 24 10 13 1018.3 1018.2 0.0
25/11:00am 23.0 20.9 13.5 55 5.5 ESE 17 24 9 13 1018.6 1018.5 0.0
25/10:30am 22.8 20.8 13.8 57 5.2 SE 17 20 9 11 1018.9 1018.8 0.0
25/10:00am 21.9 21.5 13.0 57 5.1 SSE 7 13 4 7 1019.1 1019.0 0.0
25/09:30am 20.0 19.2 13.0 64 4.0 S 9 11 5 6 1019.2 1019.1 0.0
25/09:00am 18.6 19.0 12.6 68 3.3 E 2 7 1 4 1019.4 1019.3 0.0
25/08:30am 17.2 17.8 13.1 77 2.3 SSW 2 7 1 4 1019.1 1019.0 0.0
25/08:00am 16.0 16.3 13.3 84 1.5 SSW 4 6 2 3 1018.8 1018.7 0.0
25/07:30am 15.2 15.0 12.9 86 1.3 SW 6 7 3 4 1018.3 1018.2 0.0
25/07:00am 14.6 13.7 12.6 88 1.1 SW 9 13 5 7 1018.1 1018.0 0.0
25/06:30am 14.1 12.8 12.5 90 0.9 SW 11 13 6 7 1017.9 1017.8 0.0
25/06:00am 14.0 13.7 12.7 92 0.7 S 6 11 3 6 1017.5 1017.5 0.0
25/05:30am 14.0 14.0 12.4 90 0.9 ENE 4 7 2 4 1017.0 1017.0 0.0

Other Formats:

Comma delimited format used in spreadsheet applications
http://www.bom.gov.au/fwo/IDQ60801/IDQ60801.94365.axf

JavaScript Object Notation format (JSON) in row-major order
http://www.bom.gov.au/fwo/IDQ60801/IDQ60801.94365.json